sensor_id;sensor_type;location;lat;lon;timestamp;P1;durP1;ratioP1;P2;durP2;ratioP2
60612;SDS011;46443;59.792;17.626;2024-02-21T00:00:52;12.32;;;5.60;;
60612;SDS011;46443;59.792;17.626;2024-02-21T00:03:18;12.68;;;5.18;;
60612;SDS011;46443;59.792;17.626;2024-02-21T00:05:44;11.43;;;4.47;;
60612;SDS011;46443;59.792;17.626;2024-02-21T00:08:10;14.23;;;5.72;;
60612;SDS011;46443;59.792;17.626;2024-02-21T00:10:37;13.52;;;6.15;;
60612;SDS011;46443;59.792;17.626;2024-02-21T00:13:03;13.25;;;5.13;;
60612;SDS011;46443;59.792;17.626;2024-02-21T00:15:29;12.80;;;6.22;;
60612;SDS011;46443;59.792;17.626;2024-02-21T00:17:55;15.07;;;6.03;;
60612;SDS011;46443;59.792;17.626;2024-02-21T00:20:21;17.33;;;6.70;;
60612;SDS011;46443;59.792;17.626;2024-02-21T00:22:47;16.35;;;6.75;;
60612;SDS011;46443;59.792;17.626;2024-02-21T00:25:13;13.65;;;6.53;;
60612;SDS011;46443;59.792;17.626;2024-02-21T00:27:39;18.55;;;6.95;;
60612;SDS011;46443;59.792;17.626;2024-02-21T00:30:06;11.32;;;4.90;;
60612;SDS011;46443;59.792;17.626;2024-02-21T00:32:32;14.82;;;5.47;;
60612;SDS011;46443;59.792;17.626;2024-02-21T00:34:59;15.70;;;6.03;;
60612;SDS011;46443;59.792;17.626;2024-02-21T00:37:26;17.27;;;6.45;;
60612;SDS011;46443;59.792;17.626;2024-02-21T00:39:53;12.80;;;4.88;;
60612;SDS011;46443;59.792;17.626;2024-02-21T00:42:19;12.98;;;5.65;;
60612;SDS011;46443;59.792;17.626;2024-02-21T00:44:46;16.40;;;7.25;;
60612;SDS011;46443;59.792;17.626;2024-02-21T00:47:12;20.02;;;7.95;;
60612;SDS011;46443;59.792;17.626;2024-02-21T00:49:38;17.90;;;7.22;;
60612;SDS011;46443;59.792;17.626;2024-02-21T00:52:04;17.30;;;8.43;;
60612;SDS011;46443;59.792;17.626;2024-02-21T00:54:30;14.85;;;6.30;;
60612;SDS011;46443;59.792;17.626;2024-02-21T00:56:56;19.13;;;7.47;;
60612;SDS011;46443;59.792;17.626;2024-02-21T00:59:22;19.55;;;6.85;;
60612;SDS011;46443;59.792;17.626;2024-02-21T01:01:48;18.35;;;7.85;;
60612;SDS011;46443;59.792;17.626;2024-02-21T01:04:14;21.77;;;7.55;;
60612;SDS011;46443;59.792;17.626;2024-02-21T01:06:41;20.85;;;7.63;;
60612;SDS011;46443;59.792;17.626;2024-02-21T01:09:09;24.25;;;8.63;;
60612;SDS011;46443;59.792;17.626;2024-02-21T01:11:35;25.63;;;8.82;;
60612;SDS011;46443;59.792;17.626;2024-02-21T01:14:01;26.90;;;8.98;;
60612;SDS011;46443;59.792;17.626;2024-02-21T01:16:27;24.33;;;8.15;;
60612;SDS011;46443;59.792;17.626;2024-02-21T01:18:53;29.58;;;9.57;;
60612;SDS011;46443;59.792;17.626;2024-02-21T01:21:20;23.85;;;7.78;;
60612;SDS011;46443;59.792;17.626;2024-02-21T01:23:46;24.35;;;8.40;;
60612;SDS011;46443;59.792;17.626;2024-02-21T01:26:12;23.42;;;9.50;;
60612;SDS011;46443;59.792;17.626;2024-02-21T01:28:40;29.40;;;9.10;;
60612;SDS011;46443;59.792;17.626;2024-02-21T01:31:07;23.90;;;8.60;;
60612;SDS011;46443;59.792;17.626;2024-02-21T01:33:34;25.23;;;8.25;;
60612;SDS011;46443;59.792;17.626;2024-02-21T01:36:04;23.65;;;8.23;;
60612;SDS011;46443;59.792;17.626;2024-02-21T01:38:33;27.05;;;8.75;;
60612;SDS011;46443;59.792;17.626;2024-02-21T01:40:59;28.75;;;9.07;;
60612;SDS011;46443;59.792;17.626;2024-02-21T01:43:25;31.30;;;10.77;;
60612;SDS011;46443;59.792;17.626;2024-02-21T01:45:55;40.55;;;11.35;;
60612;SDS011;46443;59.792;17.626;2024-02-21T01:50:51;29.13;;;9.53;;
60612;SDS011;46443;59.792;17.626;2024-02-21T01:53:27;25.98;;;8.80;;
60612;SDS011;46443;59.792;17.626;2024-02-21T01:55:55;37.90;;;10.68;;
60612;SDS011;46443;59.792;17.626;2024-02-21T01:58:21;24.00;;;9.15;;
60612;SDS011;46443;59.792;17.626;2024-02-21T02:00:47;34.78;;;9.48;;
60612;SDS011;46443;59.792;17.626;2024-02-21T02:03:14;33.83;;;9.60;;
60612;SDS011;46443;59.792;17.626;2024-02-21T02:05:43;27.13;;;8.35;;
60612;SDS011;46443;59.792;17.626;2024-02-21T02:08:09;35.55;;;10.50;;
60612;SDS011;46443;59.792;17.626;2024-02-21T02:10:36;26.17;;;8.32;;
60612;SDS011;46443;59.792;17.626;2024-02-21T02:13:02;31.90;;;10.98;;
60612;SDS011;46443;59.792;17.626;2024-02-21T02:15:37;26.85;;;8.82;;
60612;SDS011;46443;59.792;17.626;2024-02-21T02:18:03;26.88;;;8.63;;
60612;SDS011;46443;59.792;17.626;2024-02-21T02:20:29;30.90;;;10.02;;
60612;SDS011;46443;59.792;17.626;2024-02-21T02:22:55;29.08;;;9.18;;
60612;SDS011;46443;59.792;17.626;2024-02-21T02:25:22;29.77;;;8.60;;
60612;SDS011;46443;59.792;17.626;2024-02-21T02:27:48;28.05;;;7.70;;
60612;SDS011;46443;59.792;17.626;2024-02-21T02:30:15;32.40;;;9.68;;
60612;SDS011;46443;59.792;17.626;2024-02-21T02:32:44;27.98;;;8.65;;
60612;SDS011;46443;59.792;17.626;2024-02-21T02:35:10;20.42;;;6.35;;
60612;SDS011;46443;59.792;17.626;2024-02-21T02:37:36;23.13;;;7.78;;
60612;SDS011;46443;59.792;17.626;2024-02-21T02:40:04;26.88;;;8.80;;
60612;SDS011;46443;59.792;17.626;2024-02-21T02:42:30;21.77;;;7.00;;
60612;SDS011;46443;59.792;17.626;2024-02-21T02:44:56;23.52;;;8.38;;
60612;SDS011;46443;59.792;17.626;2024-02-21T02:47:22;22.00;;;6.95;;
60612;SDS011;46443;59.792;17.626;2024-02-21T02:49:49;19.17;;;7.20;;
60612;SDS011;46443;59.792;17.626;2024-02-21T02:52:18;22.67;;;7.32;;
60612;SDS011;46443;59.792;17.626;2024-02-21T02:54:45;18.15;;;6.88;;
60612;SDS011;46443;59.792;17.626;2024-02-21T02:57:16;21.55;;;7.32;;
60612;SDS011;46443;59.792;17.626;2024-02-21T02:59:46;21.23;;;7.72;;
60612;SDS011;46443;59.792;17.626;2024-02-21T03:04:39;23.37;;;6.80;;
60612;SDS011;46443;59.792;17.626;2024-02-21T03:07:05;18.10;;;5.95;;
60612;SDS011;46443;59.792;17.626;2024-02-21T03:09:32;23.75;;;6.50;;
60612;SDS011;46443;59.792;17.626;2024-02-21T03:11:58;20.10;;;6.15;;
60612;SDS011;46443;59.792;17.626;2024-02-21T03:14:30;16.80;;;5.43;;
60612;SDS011;46443;59.792;17.626;2024-02-21T03:16:57;19.58;;;6.35;;
60612;SDS011;46443;59.792;17.626;2024-02-21T03:19:24;17.98;;;6.32;;
60612;SDS011;46443;59.792;17.626;2024-02-21T03:21:51;22.77;;;6.93;;
60612;SDS011;46443;59.792;17.626;2024-02-21T03:24:17;19.00;;;6.63;;
60612;SDS011;46443;59.792;17.626;2024-02-21T03:26:43;18.65;;;5.95;;
60612;SDS011;46443;59.792;17.626;2024-02-21T03:29:10;17.73;;;6.38;;
60612;SDS011;46443;59.792;17.626;2024-02-21T03:31:36;18.70;;;6.43;;
60612;SDS011;46443;59.792;17.626;2024-02-21T03:34:02;13.73;;;4.93;;
60612;SDS011;46443;59.792;17.626;2024-02-21T03:36:28;18.23;;;5.97;;
60612;SDS011;46443;59.792;17.626;2024-02-21T03:38:55;23.02;;;6.55;;
60612;SDS011;46443;59.792;17.626;2024-02-21T03:41:21;17.65;;;5.40;;
60612;SDS011;46443;59.792;17.626;2024-02-21T03:43:47;15.68;;;5.75;;
60612;SDS011;46443;59.792;17.626;2024-02-21T03:46:14;19.33;;;5.80;;
60612;SDS011;46443;59.792;17.626;2024-02-21T03:48:40;18.02;;;6.00;;
60612;SDS011;46443;59.792;17.626;2024-02-21T03:51:06;17.88;;;5.70;;
60612;SDS011;46443;59.792;17.626;2024-02-21T03:53:32;15.18;;;5.75;;
60612;SDS011;46443;59.792;17.626;2024-02-21T03:56:01;21.23;;;6.82;;
60612;SDS011;46443;59.792;17.626;2024-02-21T03:58:29;15.52;;;5.68;;
60612;SDS011;46443;59.792;17.626;2024-02-21T04:00:55;16.67;;;5.80;;
60612;SDS011;46443;59.792;17.626;2024-02-21T04:03:22;15.10;;;5.47;;
60612;SDS011;46443;59.792;17.626;2024-02-21T04:05:48;16.58;;;5.65;;
60612;SDS011;46443;59.792;17.626;2024-02-21T04:08:14;15.18;;;5.28;;
60612;SDS011;46443;59.792;17.626;2024-02-21T04:10:40;16.20;;;5.78;;
60612;SDS011;46443;59.792;17.626;2024-02-21T04:13:06;17.15;;;5.85;;
60612;SDS011;46443;59.792;17.626;2024-02-21T04:15:32;14.00;;;4.85;;
60612;SDS011;46443;59.792;17.626;2024-02-21T04:17:59;15.30;;;4.65;;
60612;SDS011;46443;59.792;17.626;2024-02-21T04:20:25;15.02;;;5.43;;
60612;SDS011;46443;59.792;17.626;2024-02-21T04:22:51;18.05;;;6.03;;
60612;SDS011;46443;59.792;17.626;2024-02-21T04:25:17;15.15;;;5.15;;
60612;SDS011;46443;59.792;17.626;2024-02-21T04:27:44;15.77;;;5.55;;
60612;SDS011;46443;59.792;17.626;2024-02-21T04:30:10;14.18;;;4.97;;
60612;SDS011;46443;59.792;17.626;2024-02-21T04:32:36;14.15;;;5.53;;
60612;SDS011;46443;59.792;17.626;2024-02-21T04:35:03;16.23;;;5.30;;
60612;SDS011;46443;59.792;17.626;2024-02-21T04:37:29;12.02;;;4.30;;
60612;SDS011;46443;59.792;17.626;2024-02-21T04:39:56;16.80;;;5.15;;
60612;SDS011;46443;59.792;17.626;2024-02-21T04:42:22;15.97;;;5.83;;
60612;SDS011;46443;59.792;17.626;2024-02-21T04:44:48;16.40;;;5.53;;
60612;SDS011;46443;59.792;17.626;2024-02-21T04:47:14;18.88;;;6.20;;
60612;SDS011;46443;59.792;17.626;2024-02-21T04:49:40;15.18;;;5.82;;
60612;SDS011;46443;59.792;17.626;2024-02-21T04:52:06;15.02;;;5.15;;
60612;SDS011;46443;59.792;17.626;2024-02-21T04:54:32;15.02;;;5.20;;
60612;SDS011;46443;59.792;17.626;2024-02-21T04:57:00;14.30;;;5.63;;
60612;SDS011;46443;59.792;17.626;2024-02-21T04:59:26;12.93;;;4.72;;
60612;SDS011;46443;59.792;17.626;2024-02-21T05:01:52;20.58;;;5.60;;
60612;SDS011;46443;59.792;17.626;2024-02-21T05:04:18;17.80;;;5.03;;
60612;SDS011;46443;59.792;17.626;2024-02-21T05:06:44;14.50;;;5.43;;
60612;SDS011;46443;59.792;17.626;2024-02-21T05:09:10;17.33;;;5.18;;
60612;SDS011;46443;59.792;17.626;2024-02-21T05:11:36;14.60;;;5.03;;
60612;SDS011;46443;59.792;17.626;2024-02-21T05:14:03;13.07;;;4.40;;
60612;SDS011;46443;59.792;17.626;2024-02-21T05:16:30;14.65;;;4.57;;
60612;SDS011;46443;59.792;17.626;2024-02-21T05:18:56;13.90;;;5.00;;
60612;SDS011;46443;59.792;17.626;2024-02-21T05:21:22;12.07;;;5.27;;
60612;SDS011;46443;59.792;17.626;2024-02-21T05:23:49;11.52;;;4.78;;
60612;SDS011;46443;59.792;17.626;2024-02-21T05:26:22;12.40;;;4.50;;
60612;SDS011;46443;59.792;17.626;2024-02-21T05:28:48;11.77;;;4.80;;
60612;SDS011;46443;59.792;17.626;2024-02-21T05:31:17;14.53;;;4.57;;
60612;SDS011;46443;59.792;17.626;2024-02-21T05:33:44;12.20;;;3.40;;
60612;SDS011;46443;59.792;17.626;2024-02-21T05:36:10;15.63;;;4.68;;
60612;SDS011;46443;59.792;17.626;2024-02-21T05:38:36;10.87;;;4.17;;
60612;SDS011;46443;59.792;17.626;2024-02-21T05:41:02;9.85;;;3.75;;
60612;SDS011;46443;59.792;17.626;2024-02-21T05:43:28;9.87;;;3.33;;
60612;SDS011;46443;59.792;17.626;2024-02-21T05:45:55;11.57;;;4.10;;
60612;SDS011;46443;59.792;17.626;2024-02-21T05:48:24;11.10;;;4.27;;
60612;SDS011;46443;59.792;17.626;2024-02-21T05:50:50;9.82;;;4.07;;
60612;SDS011;46443;59.792;17.626;2024-02-21T05:53:16;10.80;;;4.63;;
60612;SDS011;46443;59.792;17.626;2024-02-21T05:55:43;7.88;;;3.65;;
60612;SDS011;46443;59.792;17.626;2024-02-21T05:58:09;13.20;;;4.57;;
60612;SDS011;46443;59.792;17.626;2024-02-21T06:00:38;10.45;;;4.18;;
60612;SDS011;46443;59.792;17.626;2024-02-21T06:03:04;12.48;;;4.65;;
60612;SDS011;46443;59.792;17.626;2024-02-21T06:05:31;15.27;;;5.18;;
60612;SDS011;46443;59.792;17.626;2024-02-21T06:07:57;10.85;;;4.25;;
60612;SDS011;46443;59.792;17.626;2024-02-21T06:10:23;11.05;;;4.50;;
60612;SDS011;46443;59.792;17.626;2024-02-21T06:12:49;16.23;;;5.30;;
60612;SDS011;46443;59.792;17.626;2024-02-21T06:15:15;15.37;;;4.53;;
60612;SDS011;46443;59.792;17.626;2024-02-21T06:17:41;14.40;;;5.03;;
60612;SDS011;46443;59.792;17.626;2024-02-21T06:20:07;11.35;;;3.90;;
60612;SDS011;46443;59.792;17.626;2024-02-21T06:22:33;16.33;;;5.73;;
60612;SDS011;46443;59.792;17.626;2024-02-21T06:24:59;14.63;;;4.60;;
60612;SDS011;46443;59.792;17.626;2024-02-21T06:27:27;15.57;;;4.60;;
60612;SDS011;46443;59.792;17.626;2024-02-21T06:29:53;12.67;;;4.33;;
60612;SDS011;46443;59.792;17.626;2024-02-21T06:32:19;12.70;;;3.97;;
60612;SDS011;46443;59.792;17.626;2024-02-21T06:34:45;16.73;;;5.27;;
60612;SDS011;46443;59.792;17.626;2024-02-21T06:37:11;12.73;;;4.30;;
60612;SDS011;46443;59.792;17.626;2024-02-21T06:39:37;11.47;;;4.70;;
60612;SDS011;46443;59.792;17.626;2024-02-21T06:42:05;14.70;;;4.37;;
60612;SDS011;46443;59.792;17.626;2024-02-21T06:44:31;11.63;;;4.63;;
60612;SDS011;46443;59.792;17.626;2024-02-21T06:47:01;13.98;;;4.85;;
60612;SDS011;46443;59.792;17.626;2024-02-21T06:49:27;12.70;;;4.83;;
60612;SDS011;46443;59.792;17.626;2024-02-21T06:51:53;12.43;;;4.53;;
60612;SDS011;46443;59.792;17.626;2024-02-21T06:54:19;14.50;;;5.03;;
60612;SDS011;46443;59.792;17.626;2024-02-21T06:56:45;10.50;;;4.23;;
60612;SDS011;46443;59.792;17.626;2024-02-21T06:59:11;11.70;;;3.93;;
60612;SDS011;46443;59.792;17.626;2024-02-21T07:01:44;11.20;;;4.73;;
60612;SDS011;46443;59.792;17.626;2024-02-21T07:04:10;16.15;;;5.40;;
60612;SDS011;46443;59.792;17.626;2024-02-21T07:06:36;16.70;;;5.03;;
60612;SDS011;46443;59.792;17.626;2024-02-21T07:09:02;14.93;;;4.83;;
60612;SDS011;46443;59.792;17.626;2024-02-21T07:11:28;17.40;;;5.30;;
60612;SDS011;46443;59.792;17.626;2024-02-21T07:13:54;15.83;;;5.07;;
60612;SDS011;46443;59.792;17.626;2024-02-21T07:16:20;19.03;;;4.10;;
60612;SDS011;46443;59.792;17.626;2024-02-21T07:18:47;17.40;;;5.30;;
60612;SDS011;46443;59.792;17.626;2024-02-21T07:21:13;14.40;;;4.73;;
60612;SDS011;46443;59.792;17.626;2024-02-21T07:23:42;9.37;;;3.63;;
60612;SDS011;46443;59.792;17.626;2024-02-21T07:26:09;12.07;;;4.27;;
60612;SDS011;46443;59.792;17.626;2024-02-21T07:28:35;12.80;;;4.10;;
60612;SDS011;46443;59.792;17.626;2024-02-21T07:31:01;9.80;;;3.87;;
60612;SDS011;46443;59.792;17.626;2024-02-21T07:33:27;9.30;;;4.17;;
60612;SDS011;46443;59.792;17.626;2024-02-21T07:35:55;7.30;;;3.17;;
60612;SDS011;46443;59.792;17.626;2024-02-21T07:38:21;8.77;;;3.27;;
60612;SDS011;46443;59.792;17.626;2024-02-21T07:40:47;10.73;;;3.03;;
60612;SDS011;46443;59.792;17.626;2024-02-21T07:43:13;6.67;;;3.30;;
60612;SDS011;46443;59.792;17.626;2024-02-21T07:45:40;7.27;;;3.27;;
60612;SDS011;46443;59.792;17.626;2024-02-21T07:48:06;5.73;;;3.00;;
60612;SDS011;46443;59.792;17.626;2024-02-21T07:50:32;6.37;;;2.87;;
60612;SDS011;46443;59.792;17.626;2024-02-21T07:52:58;7.80;;;3.20;;
60612;SDS011;46443;59.792;17.626;2024-02-21T07:55:24;8.93;;;3.20;;
60612;SDS011;46443;59.792;17.626;2024-02-21T07:57:50;11.37;;;3.40;;
60612;SDS011;46443;59.792;17.626;2024-02-21T08:00:16;8.73;;;2.97;;
60612;SDS011;46443;59.792;17.626;2024-02-21T08:02:53;4.97;;;2.73;;
60612;SDS011;46443;59.792;17.626;2024-02-21T08:05:19;9.37;;;3.57;;
60612;SDS011;46443;59.792;17.626;2024-02-21T08:07:45;9.47;;;3.10;;
60612;SDS011;46443;59.792;17.626;2024-02-21T08:10:11;8.93;;;3.30;;
60612;SDS011;46443;59.792;17.626;2024-02-21T08:12:38;6.87;;;2.63;;
60612;SDS011;46443;59.792;17.626;2024-02-21T08:15:04;7.93;;;3.43;;
60612;SDS011;46443;59.792;17.626;2024-02-21T08:17:31;11.27;;;4.40;;
60612;SDS011;46443;59.792;17.626;2024-02-21T08:19:57;17.97;;;4.83;;
60612;SDS011;46443;59.792;17.626;2024-02-21T08:22:23;15.70;;;4.63;;
60612;SDS011;46443;59.792;17.626;2024-02-21T08:24:50;12.10;;;3.63;;
60612;SDS011;46443;59.792;17.626;2024-02-21T08:27:16;9.97;;;3.63;;
60612;SDS011;46443;59.792;17.626;2024-02-21T08:29:42;9.87;;;3.73;;
60612;SDS011;46443;59.792;17.626;2024-02-21T08:32:08;12.63;;;4.90;;
60612;SDS011;46443;59.792;17.626;2024-02-21T08:34:34;10.87;;;4.07;;
60612;SDS011;46443;59.792;17.626;2024-02-21T08:37:00;9.43;;;3.77;;
60612;SDS011;46443;59.792;17.626;2024-02-21T08:39:26;10.07;;;3.20;;
60612;SDS011;46443;59.792;17.626;2024-02-21T08:41:53;12.00;;;4.67;;
60612;SDS011;46443;59.792;17.626;2024-02-21T08:44:21;10.63;;;3.87;;
60612;SDS011;46443;59.792;17.626;2024-02-21T08:46:48;12.67;;;4.40;;
60612;SDS011;46443;59.792;17.626;2024-02-21T08:49:14;10.20;;;4.13;;
60612;SDS011;46443;59.792;17.626;2024-02-21T08:51:40;12.27;;;4.43;;
60612;SDS011;46443;59.792;17.626;2024-02-21T08:54:08;13.13;;;4.10;;
60612;SDS011;46443;59.792;17.626;2024-02-21T08:56:34;12.80;;;4.17;;
60612;SDS011;46443;59.792;17.626;2024-02-21T08:59:00;8.13;;;3.87;;
60612;SDS011;46443;59.792;17.626;2024-02-21T09:01:26;10.10;;;4.13;;
60612;SDS011;46443;59.792;17.626;2024-02-21T09:03:53;10.47;;;3.90;;
60612;SDS011;46443;59.792;17.626;2024-02-21T09:06:21;9.17;;;4.37;;
60612;SDS011;46443;59.792;17.626;2024-02-21T09:08:48;12.30;;;4.70;;
60612;SDS011;46443;59.792;17.626;2024-02-21T09:11:14;15.13;;;3.57;;
60612;SDS011;46443;59.792;17.626;2024-02-21T09:13:42;12.63;;;4.20;;
60612;SDS011;46443;59.792;17.626;2024-02-21T09:16:08;8.23;;;3.67;;
60612;SDS011;46443;59.792;17.626;2024-02-21T09:18:34;8.67;;;3.27;;
60612;SDS011;46443;59.792;17.626;2024-02-21T09:21:00;11.03;;;4.93;;
60612;SDS011;46443;59.792;17.626;2024-02-21T09:23:26;9.33;;;3.80;;
60612;SDS011;46443;59.792;17.626;2024-02-21T09:25:52;9.10;;;4.27;;
60612;SDS011;46443;59.792;17.626;2024-02-21T09:28:20;7.73;;;3.83;;
60612;SDS011;46443;59.792;17.626;2024-02-21T09:30:46;9.77;;;4.47;;
60612;SDS011;46443;59.792;17.626;2024-02-21T09:33:12;8.00;;;3.63;;
60612;SDS011;46443;59.792;17.626;2024-02-21T09:35:38;9.70;;;4.43;;
60612;SDS011;46443;59.792;17.626;2024-02-21T09:38:05;9.67;;;4.23;;
60612;SDS011;46443;59.792;17.626;2024-02-21T09:40:31;7.97;;;3.93;;
60612;SDS011;46443;59.792;17.626;2024-02-21T09:43:03;12.20;;;4.57;;
60612;SDS011;46443;59.792;17.626;2024-02-21T09:45:30;9.77;;;4.07;;
60612;SDS011;46443;59.792;17.626;2024-02-21T09:50:22;13.43;;;4.50;;
60612;SDS011;46443;59.792;17.626;2024-02-21T09:52:48;11.20;;;3.90;;
60612;SDS011;46443;59.792;17.626;2024-02-21T09:55:15;10.73;;;4.00;;
60612;SDS011;46443;59.792;17.626;2024-02-21T09:57:43;10.57;;;4.40;;
60612;SDS011;46443;59.792;17.626;2024-02-21T10:00:10;11.03;;;4.20;;
60612;SDS011;46443;59.792;17.626;2024-02-21T10:02:36;9.03;;;3.90;;
60612;SDS011;46443;59.792;17.626;2024-02-21T10:05:02;6.53;;;3.27;;
60612;SDS011;46443;59.792;17.626;2024-02-21T10:07:30;9.73;;;3.90;;
60612;SDS011;46443;59.792;17.626;2024-02-21T10:10:03;8.57;;;4.33;;
60612;SDS011;46443;59.792;17.626;2024-02-21T10:12:30;8.63;;;3.87;;
60612;SDS011;46443;59.792;17.626;2024-02-21T10:15:02;11.40;;;3.70;;
60612;SDS011;46443;59.792;17.626;2024-02-21T10:17:28;10.80;;;4.10;;
60612;SDS011;46443;59.792;17.626;2024-02-21T10:19:55;7.67;;;3.97;;
60612;SDS011;46443;59.792;17.626;2024-02-21T10:22:21;8.90;;;3.50;;
60612;SDS011;46443;59.792;17.626;2024-02-21T10:24:47;14.20;;;4.30;;
60612;SDS011;46443;59.792;17.626;2024-02-21T10:27:13;9.57;;;4.40;;
60612;SDS011;46443;59.792;17.626;2024-02-21T10:29:39;10.37;;;4.20;;
60612;SDS011;46443;59.792;17.626;2024-02-21T10:34:32;9.70;;;4.63;;
60612;SDS011;46443;59.792;17.626;2024-02-21T10:36:59;7.57;;;3.60;;
60612;SDS011;46443;59.792;17.626;2024-02-21T10:39:25;8.50;;;3.83;;
60612;SDS011;46443;59.792;17.626;2024-02-21T10:41:52;9.67;;;4.07;;
60612;SDS011;46443;59.792;17.626;2024-02-21T10:44:18;7.97;;;4.30;;
60612;SDS011;46443;59.792;17.626;2024-02-21T10:46:45;8.57;;;3.83;;
60612;SDS011;46443;59.792;17.626;2024-02-21T10:49:13;8.80;;;4.33;;
60612;SDS011;46443;59.792;17.626;2024-02-21T10:51:43;9.98;;;4.03;;
60612;SDS011;46443;59.792;17.626;2024-02-21T10:56:54;14.17;;;4.20;;
60612;SDS011;46443;59.792;17.626;2024-02-21T10:59:22;9.80;;;4.17;;
60612;SDS011;46443;59.792;17.626;2024-02-21T11:01:48;10.27;;;3.80;;
60612;SDS011;46443;59.792;17.626;2024-02-21T11:04:15;8.70;;;3.67;;
60612;SDS011;46443;59.792;17.626;2024-02-21T11:06:41;12.43;;;4.20;;
60612;SDS011;46443;59.792;17.626;2024-02-21T11:09:08;7.53;;;3.73;;
60612;SDS011;46443;59.792;17.626;2024-02-21T11:11:35;11.63;;;4.47;;
60612;SDS011;46443;59.792;17.626;2024-02-21T11:14:06;8.03;;;4.13;;
60612;SDS011;46443;59.792;17.626;2024-02-21T11:16:39;11.10;;;4.35;;
60612;SDS011;46443;59.792;17.626;2024-02-21T11:19:08;10.60;;;3.93;;
60612;SDS011;46443;59.792;17.626;2024-02-21T11:21:36;7.33;;;4.03;;
60612;SDS011;46443;59.792;17.626;2024-02-21T11:24:03;7.90;;;3.93;;
60612;SDS011;46443;59.792;17.626;2024-02-21T11:26:29;8.03;;;4.00;;
60612;SDS011;46443;59.792;17.626;2024-02-21T11:28:59;6.60;;;3.33;;
60612;SDS011;46443;59.792;17.626;2024-02-21T11:31:26;8.02;;;3.75;;
60612;SDS011;46443;59.792;17.626;2024-02-21T11:33:52;7.43;;;3.47;;
60612;SDS011;46443;59.792;17.626;2024-02-21T11:36:25;7.27;;;3.90;;
60612;SDS011;46443;59.792;17.626;2024-02-21T11:38:52;9.43;;;4.00;;
60612;SDS011;46443;59.792;17.626;2024-02-21T11:41:18;7.07;;;3.73;;
60612;SDS011;46443;59.792;17.626;2024-02-21T11:43:46;12.53;;;4.10;;
60612;SDS011;46443;59.792;17.626;2024-02-21T11:46:13;8.93;;;3.53;;
60612;SDS011;46443;59.792;17.626;2024-02-21T11:48:40;11.53;;;3.97;;
60612;SDS011;46443;59.792;17.626;2024-02-21T11:51:09;9.52;;;3.78;;
60612;SDS011;46443;59.792;17.626;2024-02-21T11:53:36;6.87;;;3.47;;
60612;SDS011;46443;59.792;17.626;2024-02-21T11:56:02;8.80;;;3.70;;
60612;SDS011;46443;59.792;17.626;2024-02-21T11:58:28;6.13;;;3.33;;
60612;SDS011;46443;59.792;17.626;2024-02-21T12:00:55;6.57;;;3.40;;
60612;SDS011;46443;59.792;17.626;2024-02-21T12:03:21;7.30;;;3.50;;
60612;SDS011;46443;59.792;17.626;2024-02-21T12:05:48;6.27;;;3.00;;
60612;SDS011;46443;59.792;17.626;2024-02-21T12:08:14;6.87;;;3.60;;
60612;SDS011;46443;59.792;17.626;2024-02-21T12:10:41;19.10;;;4.17;;
60612;SDS011;46443;59.792;17.626;2024-02-21T12:13:09;52.20;;;6.60;;
60612;SDS011;46443;59.792;17.626;2024-02-21T12:15:35;17.80;;;3.93;;
60612;SDS011;46443;59.792;17.626;2024-02-21T12:18:01;33.17;;;5.47;;
60612;SDS011;46443;59.792;17.626;2024-02-21T12:20:27;9.00;;;3.90;;
60612;SDS011;46443;59.792;17.626;2024-02-21T12:22:53;16.50;;;3.83;;
60612;SDS011;46443;59.792;17.626;2024-02-21T12:25:21;16.43;;;4.17;;
60612;SDS011;46443;59.792;17.626;2024-02-21T12:27:52;13.17;;;3.73;;
60612;SDS011;46443;59.792;17.626;2024-02-21T12:30:18;6.30;;;3.10;;
60612;SDS011;46443;59.792;17.626;2024-02-21T12:32:45;15.63;;;4.27;;
60612;SDS011;46443;59.792;17.626;2024-02-21T12:35:11;40.77;;;5.53;;
60612;SDS011;46443;59.792;17.626;2024-02-21T12:37:37;14.47;;;4.33;;
60612;SDS011;46443;59.792;17.626;2024-02-21T12:40:06;7.60;;;3.40;;
60612;SDS011;46443;59.792;17.626;2024-02-21T12:42:33;13.98;;;3.60;;
60612;SDS011;46443;59.792;17.626;2024-02-21T12:44:59;7.67;;;3.87;;
60612;SDS011;46443;59.792;17.626;2024-02-21T12:47:25;5.70;;;2.90;;
60612;SDS011;46443;59.792;17.626;2024-02-21T12:49:52;5.20;;;2.30;;
60612;SDS011;46443;59.792;17.626;2024-02-21T12:52:18;5.87;;;2.60;;
60612;SDS011;46443;59.792;17.626;2024-02-21T12:54:44;19.47;;;3.80;;
60612;SDS011;46443;59.792;17.626;2024-02-21T12:57:11;8.27;;;3.17;;
60612;SDS011;46443;59.792;17.626;2024-02-21T12:59:37;4.40;;;2.60;;
60612;SDS011;46443;59.792;17.626;2024-02-21T13:02:03;6.23;;;3.17;;
60612;SDS011;46443;59.792;17.626;2024-02-21T13:04:29;5.87;;;2.53;;
60612;SDS011;46443;59.792;17.626;2024-02-21T13:06:55;4.80;;;2.70;;
60612;SDS011;46443;59.792;17.626;2024-02-21T13:09:21;10.57;;;3.40;;
60612;SDS011;46443;59.792;17.626;2024-02-21T13:11:47;6.33;;;2.50;;
60612;SDS011;46443;59.792;17.626;2024-02-21T13:14:14;7.53;;;2.60;;
60612;SDS011;46443;59.792;17.626;2024-02-21T13:16:40;14.80;;;3.90;;
60612;SDS011;46443;59.792;17.626;2024-02-21T13:19:06;8.63;;;2.70;;
60612;SDS011;46443;59.792;17.626;2024-02-21T13:21:35;6.13;;;2.50;;
60612;SDS011;46443;59.792;17.626;2024-02-21T13:24:01;5.80;;;2.83;;
60612;SDS011;46443;59.792;17.626;2024-02-21T13:26:27;6.33;;;2.53;;
60612;SDS011;46443;59.792;17.626;2024-02-21T13:28:53;5.97;;;2.70;;
60612;SDS011;46443;59.792;17.626;2024-02-21T13:31:20;4.83;;;2.53;;
60612;SDS011;46443;59.792;17.626;2024-02-21T13:33:46;5.27;;;3.00;;
60612;SDS011;46443;59.792;17.626;2024-02-21T13:36:12;5.00;;;2.50;;
60612;SDS011;46443;59.792;17.626;2024-02-21T13:38:38;5.10;;;2.30;;
60612;SDS011;46443;59.792;17.626;2024-02-21T13:41:05;4.63;;;2.33;;
60612;SDS011;46443;59.792;17.626;2024-02-21T13:43:31;7.97;;;3.17;;
60612;SDS011;46443;59.792;17.626;2024-02-21T13:45:58;4.00;;;2.10;;
60612;SDS011;46443;59.792;17.626;2024-02-21T13:48:24;9.47;;;3.17;;
60612;SDS011;46443;59.792;17.626;2024-02-21T13:50:52;6.17;;;2.93;;
60612;SDS011;46443;59.792;17.626;2024-02-21T13:53:18;6.33;;;2.63;;
60612;SDS011;46443;59.792;17.626;2024-02-21T13:55:45;4.30;;;2.53;;
60612;SDS011;46443;59.792;17.626;2024-02-21T13:58:11;4.67;;;2.30;;
60612;SDS011;46443;59.792;17.626;2024-02-21T14:00:37;4.83;;;2.73;;
60612;SDS011;46443;59.792;17.626;2024-02-21T14:03:03;6.93;;;3.03;;
60612;SDS011;46443;59.792;17.626;2024-02-21T14:05:30;5.10;;;2.80;;
60612;SDS011;46443;59.792;17.626;2024-02-21T14:07:56;9.50;;;3.13;;
60612;SDS011;46443;59.792;17.626;2024-02-21T14:10:22;4.60;;;2.60;;
60612;SDS011;46443;59.792;17.626;2024-02-21T14:12:48;6.57;;;2.60;;
60612;SDS011;46443;59.792;17.626;2024-02-21T14:15:15;5.30;;;2.67;;
60612;SDS011;46443;59.792;17.626;2024-02-21T14:17:43;4.77;;;2.63;;
60612;SDS011;46443;59.792;17.626;2024-02-21T14:20:10;4.97;;;2.50;;
60612;SDS011;46443;59.792;17.626;2024-02-21T14:22:39;5.60;;;2.63;;
60612;SDS011;46443;59.792;17.626;2024-02-21T14:25:05;5.03;;;2.70;;
60612;SDS011;46443;59.792;17.626;2024-02-21T14:27:31;4.80;;;2.70;;
60612;SDS011;46443;59.792;17.626;2024-02-21T14:29:57;13.20;;;3.20;;
60612;SDS011;46443;59.792;17.626;2024-02-21T14:32:23;14.90;;;3.53;;
60612;SDS011;46443;59.792;17.626;2024-02-21T14:34:49;38.83;;;4.73;;